createdAt,value
2023-04-15T00:01:27.093Z,10.16
2023-04-15T00:03:55.267Z,10.17
2023-04-15T00:06:22.770Z,10.16
2023-04-15T00:08:50.798Z,10.18
2023-04-15T00:11:18.293Z,10.21
2023-04-15T00:13:45.817Z,10.26
2023-04-15T00:16:12.507Z,10.34
2023-04-15T00:18:39.198Z,10.39
2023-04-15T00:21:05.947Z,10.42
2023-04-15T00:23:32.604Z,10.44
2023-04-15T00:25:59.246Z,10.46
2023-04-15T00:28:26.366Z,10.48
2023-04-15T00:30:53.118Z,10.49
2023-04-15T00:33:20.070Z,10.48
2023-04-15T00:35:47.106Z,10.51
2023-04-15T00:38:13.710Z,10.53
2023-04-15T00:40:42.041Z,10.54
2023-04-15T00:43:08.662Z,10.54
2023-04-15T00:45:35.289Z,10.52
2023-04-15T00:48:02.290Z,10.47
2023-04-15T00:50:28.922Z,10.38
2023-04-15T00:52:56.164Z,10.25
2023-04-15T00:55:22.880Z,10.19
2023-04-15T00:57:50.759Z,10.15
2023-04-15T01:00:18.296Z,10.10
2023-04-15T01:02:46.219Z,10.07
2023-04-15T01:05:13.177Z,10.04
2023-04-15T01:07:40.104Z,10.01
2023-04-15T01:10:08.303Z,9.97
2023-04-15T01:12:36.071Z,9.94
2023-04-15T01:15:02.791Z,9.91
2023-04-15T01:17:30.187Z,9.89
2023-04-15T01:20:00.017Z,9.86
2023-04-15T01:22:27.835Z,9.85
2023-04-15T01:25:06.210Z,9.85
2023-04-15T01:27:35.480Z,9.85
2023-04-15T01:30:05.422Z,9.84
2023-04-15T01:32:32.827Z,9.82
2023-04-15T01:34:59.804Z,9.81
2023-04-15T01:37:26.522Z,9.79
2023-04-15T01:39:53.182Z,9.76
2023-04-15T01:42:21.260Z,9.73
2023-04-15T01:44:49.041Z,9.70
2023-04-15T01:47:15.534Z,9.68
2023-04-15T01:49:42.161Z,9.66
2023-04-15T01:52:09.332Z,9.64
2023-04-15T01:54:36.193Z,9.61
2023-04-15T01:57:03.729Z,9.62
2023-04-15T01:59:32.027Z,9.61
2023-04-15T02:01:59.237Z,9.57
2023-04-15T02:04:28.139Z,9.54
2023-04-15T02:06:54.820Z,9.52
2023-04-15T02:09:21.741Z,9.47
2023-04-15T02:11:48.289Z,9.47
2023-04-15T02:14:14.964Z,9.48
2023-04-15T02:16:41.663Z,9.49
2023-04-15T02:19:08.976Z,9.50
2023-04-15T02:21:37.563Z,9.50
2023-04-15T02:24:04.515Z,9.50
2023-04-15T02:26:33.229Z,9.51
2023-04-15T02:29:00.408Z,9.51
2023-04-15T02:31:27.389Z,9.49
2023-04-15T02:33:54.040Z,9.46
2023-04-15T02:36:21.392Z,9.44
2023-04-15T02:38:48.027Z,9.39
2023-04-15T02:41:15.422Z,9.36
2023-04-15T02:43:42.465Z,9.32
2023-04-15T02:46:12.937Z,9.29
2023-04-15T02:48:39.747Z,9.25
2023-04-15T02:51:21.245Z,9.12
2023-04-15T02:53:49.023Z,9.02
2023-04-15T02:56:17.314Z,8.98
2023-04-15T02:58:45.802Z,8.94
2023-04-15T03:01:12.968Z,8.89
2023-04-15T03:03:40.597Z,8.85
2023-04-15T03:06:09.147Z,8.85
2023-04-15T03:08:36.600Z,8.86
2023-04-15T03:11:04.549Z,8.89
2023-04-15T03:13:31.634Z,8.91
2023-04-15T03:15:59.009Z,8.94
2023-04-15T03:18:27.128Z,8.95
2023-04-15T03:20:53.832Z,8.94
2023-04-15T03:23:20.934Z,8.93
2023-04-15T03:25:48.697Z,8.95
2023-04-15T03:28:15.380Z,8.95
2023-04-15T03:30:42.479Z,8.97
2023-04-15T03:33:09.382Z,8.99
2023-04-15T03:35:36.803Z,9.01
2023-04-15T03:38:03.569Z,9.02
2023-04-15T03:40:30.559Z,9.01
2023-04-15T03:42:57.127Z,9.00
2023-04-15T03:45:23.894Z,8.99
2023-04-15T03:47:50.636Z,8.98
2023-04-15T03:50:17.436Z,8.96
2023-04-15T03:52:45.725Z,8.91
2023-04-15T03:55:12.399Z,8.85
2023-04-15T03:57:39.887Z,8.80
2023-04-15T04:00:08.120Z,8.75
2023-04-15T04:02:39.193Z,8.72
2023-04-15T04:05:06.317Z,8.70
2023-04-15T04:07:33.050Z,8.68
2023-04-15T04:09:59.669Z,8.66
2023-04-15T04:12:26.210Z,8.62
2023-04-15T04:14:52.811Z,8.54
2023-04-15T04:17:19.371Z,8.49
2023-04-15T04:19:46.536Z,8.46
2023-04-15T04:22:13.144Z,8.45
2023-04-15T04:24:39.688Z,8.44
2023-04-15T04:27:06.377Z,8.42
2023-04-15T04:29:33.045Z,8.39
2023-04-15T04:31:59.716Z,8.36
2023-04-15T04:34:26.719Z,8.32
2023-04-15T04:36:53.325Z,8.30
2023-04-15T04:39:19.892Z,8.28
2023-04-15T04:41:46.772Z,8.27
2023-04-15T04:44:13.255Z,8.28
2023-04-15T04:46:39.953Z,8.29
2023-04-15T04:49:07.042Z,8.31
2023-04-15T04:51:33.753Z,8.29
2023-04-15T04:54:01.854Z,8.28
2023-04-15T04:56:30.452Z,8.27
2023-04-15T04:58:57.173Z,8.26
2023-04-15T05:01:23.834Z,8.28
2023-04-15T05:03:50.540Z,8.32
2023-04-15T05:06:17.324Z,8.35
2023-04-15T05:08:43.852Z,8.38
2023-04-15T05:11:10.439Z,8.40
2023-04-15T05:13:38.847Z,8.41
2023-04-15T05:16:06.448Z,8.44
2023-04-15T05:18:33.588Z,8.48
2023-04-15T05:21:00.426Z,8.50
2023-04-15T05:23:27.454Z,8.49
2023-04-15T05:25:54.177Z,8.44
2023-04-15T05:28:21.282Z,8.41
2023-04-15T05:30:47.923Z,8.39
2023-04-15T05:33:14.529Z,8.39
2023-04-15T05:35:41.496Z,8.38
2023-04-15T05:38:08.340Z,8.41
2023-04-15T05:40:34.978Z,8.45
2023-04-15T05:43:01.612Z,8.49
2023-04-15T05:45:28.357Z,8.52
2023-04-15T05:47:55.004Z,8.56
2023-04-15T05:50:21.784Z,8.62
2023-04-15T05:52:48.438Z,8.69
2023-04-15T05:55:15.010Z,8.79
2023-04-15T05:57:41.660Z,8.92
2023-04-15T06:00:08.417Z,9.08
2023-04-15T06:02:38.249Z,9.26
2023-04-15T06:05:09.944Z,9.45
2023-04-15T06:07:37.980Z,9.62
2023-04-15T06:10:05.954Z,9.78
2023-04-15T06:12:32.942Z,9.94
2023-04-15T06:15:00.384Z,10.13
2023-04-15T06:17:27.619Z,10.31
2023-04-15T06:19:55.861Z,10.52
2023-04-15T06:22:23.358Z,10.73
2023-04-15T06:24:51.364Z,10.91
2023-04-15T06:27:18.031Z,11.09
2023-04-15T06:29:44.921Z,11.29
2023-04-15T06:32:12.432Z,11.50
2023-04-15T06:34:39.120Z,11.72
2023-04-15T06:37:06.491Z,11.98
2023-04-15T06:39:33.309Z,12.23
2023-04-15T06:42:00.008Z,12.47
2023-04-15T06:44:26.751Z,12.70
2023-04-15T06:46:53.464Z,12.90
2023-04-15T06:49:20.059Z,13.11
2023-04-15T06:51:46.692Z,13.29
2023-04-15T06:54:13.439Z,13.46
2023-04-15T06:56:40.128Z,13.64
2023-04-15T06:59:06.762Z,13.81
2023-04-15T07:01:33.553Z,13.99
2023-04-15T07:04:00.620Z,14.12
2023-04-15T07:06:27.781Z,14.26
2023-04-15T07:08:55.765Z,14.39
2023-04-15T07:11:22.708Z,14.52
2023-04-15T07:13:49.352Z,14.63
2023-04-15T07:16:16.143Z,14.76
2023-04-15T07:18:43.576Z,14.93
2023-04-15T07:21:10.323Z,15.10
2023-04-15T07:23:36.970Z,15.22
2023-04-15T07:26:04.337Z,15.35
2023-04-15T07:28:31.093Z,15.43
2023-04-15T07:30:57.820Z,15.49
2023-04-15T07:33:24.468Z,15.51
2023-04-15T07:35:51.189Z,15.54
2023-04-15T07:38:17.955Z,15.60
2023-04-15T07:40:44.706Z,15.66
2023-04-15T07:43:11.456Z,15.69
2023-04-15T07:45:38.270Z,15.69
2023-04-15T07:48:06.828Z,15.72
2023-04-15T07:50:33.527Z,15.76
2023-04-15T07:53:00.330Z,15.83
2023-04-15T07:55:28.225Z,15.91
2023-04-15T07:57:55.329Z,16.00
2023-04-15T08:00:22.341Z,16.06
2023-04-15T08:02:50.091Z,16.14
2023-04-15T08:05:17.157Z,16.24
2023-04-15T08:07:43.904Z,16.33
2023-04-15T08:10:10.924Z,16.40
2023-04-15T08:12:37.959Z,16.50
2023-04-15T08:15:05.485Z,16.62
2023-04-15T08:17:32.240Z,16.74
2023-04-15T08:19:59.149Z,16.88
2023-04-15T08:22:25.915Z,17.00
2023-04-15T08:24:52.553Z,17.07
2023-04-15T08:27:19.379Z,17.13
2023-04-15T08:29:46.089Z,17.14
2023-04-15T08:32:12.811Z,17.21
2023-04-15T08:34:39.614Z,17.30
2023-04-15T08:37:07.308Z,17.43
2023-04-15T08:39:33.887Z,17.57
2023-04-15T08:42:02.751Z,17.70
2023-04-15T08:44:33.527Z,17.80
2023-04-15T08:47:04.052Z,17.92
2023-04-15T08:49:32.624Z,18.04
2023-04-15T08:52:00.588Z,18.19
2023-04-15T08:54:28.243Z,18.33
2023-04-15T08:56:55.043Z,18.40
2023-04-15T08:59:22.229Z,18.47
2023-04-15T09:01:53.549Z,18.59
2023-04-15T09:04:20.781Z,18.72
2023-04-15T09:06:47.624Z,18.81
2023-04-15T09:09:14.725Z,18.89
2023-04-15T09:11:43.080Z,18.97
2023-04-15T09:14:09.713Z,19.06
2023-04-15T09:17:00.982Z,19.14
2023-04-15T09:19:28.863Z,19.23
2023-04-15T09:21:59.064Z,19.29
2023-04-15T09:24:33.785Z,19.36
2023-04-15T09:27:00.606Z,19.44
2023-04-15T09:29:27.207Z,19.55
2023-04-15T09:31:53.962Z,19.65
2023-04-15T09:34:21.564Z,19.73
2023-04-15T09:36:50.411Z,19.73
2023-04-15T09:39:17.862Z,19.68
2023-04-15T09:41:45.289Z,19.68
2023-04-15T09:44:25.601Z,19.68
2023-04-15T09:46:52.236Z,19.75
2023-04-15T09:49:19.643Z,19.85
2023-04-15T09:52:01.493Z,19.93
2023-04-15T09:54:37.156Z,19.96
2023-04-15T09:57:07.836Z,20.04
2023-04-15T09:59:34.542Z,20.12
2023-04-15T10:02:04.147Z,20.19
2023-04-15T10:04:35.209Z,20.28
2023-04-15T10:07:05.290Z,20.28
2023-04-15T10:09:33.701Z,20.33
2023-04-15T10:12:01.302Z,20.37
2023-04-15T10:14:32.933Z,20.41
2023-04-15T10:17:02.346Z,20.53
2023-04-15T10:19:33.258Z,20.69
2023-04-15T10:22:00.630Z,20.78
2023-04-15T10:24:28.015Z,20.80
2023-04-15T10:26:55.579Z,20.78
2023-04-15T10:29:25.760Z,20.85
2023-04-15T10:31:54.820Z,20.96
2023-04-15T10:34:23.025Z,20.99
2023-04-15T10:36:50.272Z,20.95
2023-04-15T10:39:40.008Z,20.96
2023-04-15T10:42:09.385Z,21.03
2023-04-15T10:44:38.387Z,21.06
2023-04-15T10:47:11.433Z,21.08
2023-04-15T10:49:59.240Z,21.10
2023-04-15T10:52:28.477Z,21.16
2023-04-15T10:55:15.981Z,21.20
2023-04-15T10:57:44.516Z,21.16
2023-04-15T11:00:16.532Z,21.13
2023-04-15T11:02:43.303Z,21.12
2023-04-15T11:05:14.640Z,21.09
2023-04-15T11:07:44.272Z,21.02
2023-04-15T11:10:13.826Z,20.92
2023-04-15T11:12:42.116Z,20.87
2023-04-15T11:15:34.851Z,20.83
2023-04-15T11:18:25.143Z,20.79
2023-04-15T11:20:52.714Z,20.70
2023-04-15T11:23:27.704Z,20.72
2023-04-15T11:25:59.426Z,20.78
2023-04-15T11:28:30.591Z,20.89
2023-04-15T11:30:58.660Z,20.96
2023-04-15T11:33:26.006Z,21.06
2023-04-15T11:35:56.503Z,21.13
2023-04-15T11:38:23.119Z,21.18
2023-04-15T11:40:51.987Z,21.24
2023-04-15T11:43:23.015Z,21.26
2023-04-15T11:46:01.063Z,21.32
2023-04-15T11:48:34.880Z,21.31
2023-04-15T11:51:04.344Z,21.24
2023-04-15T11:53:38.581Z,21.23
2023-04-15T11:56:06.331Z,21.32
2023-04-15T11:58:37.571Z,21.45
2023-04-15T12:01:06.104Z,21.56
2023-04-15T12:03:42.587Z,21.69
2023-04-15T12:06:24.724Z,21.83
2023-04-15T12:09:06.501Z,22.05
2023-04-15T12:11:49.047Z,22.18
2023-04-15T12:14:15.650Z,21.99
2023-04-15T12:16:51.775Z,21.59
2023-04-15T12:19:26.120Z,21.25
2023-04-15T12:21:58.905Z,20.93
2023-04-15T12:24:27.130Z,20.67
2023-04-15T12:26:57.363Z,20.44
2023-04-15T12:29:29.150Z,20.22
2023-04-15T12:32:06.095Z,20.01
2023-04-15T12:34:34.926Z,19.83
2023-04-15T12:37:04.040Z,19.67
2023-04-15T12:39:35.014Z,19.52
2023-04-15T12:42:01.823Z,19.35
2023-04-15T12:44:28.759Z,19.17
2023-04-15T12:46:55.958Z,19.07
2023-04-15T12:49:24.564Z,19.00
2023-04-15T12:51:53.372Z,18.93
2023-04-15T12:54:20.623Z,18.87
2023-04-15T12:56:49.900Z,18.87
2023-04-15T12:59:18.768Z,19.05
2023-04-15T13:01:47.564Z,19.28
2023-04-15T13:04:15.503Z,19.42
2023-04-15T13:06:43.040Z,19.51
2023-04-15T13:09:09.875Z,19.71
2023-04-15T13:11:36.750Z,19.78
2023-04-15T13:14:08.429Z,19.78
2023-04-15T13:16:35.341Z,19.79
2023-04-15T13:19:04.166Z,19.77
2023-04-15T13:21:35.234Z,19.69
2023-04-15T13:24:04.050Z,19.59
2023-04-15T13:26:31.831Z,19.55
2023-04-15T13:28:59.255Z,19.52
2023-04-15T13:31:26.468Z,19.49
2023-04-15T13:33:53.365Z,19.45
2023-04-15T13:36:20.077Z,19.39
2023-04-15T13:38:48.046Z,19.45
2023-04-15T13:41:16.491Z,19.60
2023-04-15T13:43:43.473Z,19.76
2023-04-15T13:46:10.583Z,19.91
2023-04-15T13:48:37.331Z,20.03
2023-04-15T13:51:04.119Z,20.07
2023-04-15T13:53:38.441Z,20.19
2023-04-15T13:56:10.041Z,20.21
2023-04-15T13:58:38.434Z,20.15
2023-04-15T14:01:07.123Z,19.97
2023-04-15T14:03:37.491Z,19.80
2023-04-15T14:06:05.757Z,19.71
2023-04-15T14:08:33.162Z,19.72
2023-04-15T14:10:59.880Z,19.80
2023-04-15T14:13:26.551Z,19.92
2023-04-15T14:15:53.270Z,20.00
2023-04-15T14:18:20.249Z,20.06
2023-04-15T14:20:46.908Z,20.11
2023-04-15T14:23:13.566Z,20.15
2023-04-15T14:25:40.493Z,20.13
2023-04-15T14:28:07.594Z,20.06
2023-04-15T14:30:34.349Z,19.92
2023-04-15T14:33:01.215Z,19.78
2023-04-15T14:35:28.123Z,19.63
2023-04-15T14:37:55.732Z,19.49
2023-04-15T14:40:22.738Z,19.39
2023-04-15T14:42:49.446Z,19.35
2023-04-15T14:45:16.395Z,19.36
2023-04-15T14:47:43.499Z,19.40
2023-04-15T14:50:10.531Z,19.44
2023-04-15T14:52:40.156Z,19.38
2023-04-15T14:55:11.626Z,19.26
2023-04-15T14:57:39.591Z,19.17
2023-04-15T15:00:07.878Z,19.10
2023-04-15T15:05:04.913Z,18.91
2023-04-15T15:07:31.835Z,18.92
2023-04-15T15:09:59.891Z,18.94
2023-04-15T15:12:26.638Z,18.91
2023-04-15T15:14:54.952Z,18.75
2023-04-15T15:17:22.250Z,18.58
2023-04-15T15:19:49.087Z,18.49
2023-04-15T15:22:15.738Z,18.39
2023-04-15T15:24:42.539Z,18.29
2023-04-15T15:27:10.509Z,18.25
2023-04-15T15:29:37.957Z,18.26
2023-04-15T15:32:04.766Z,18.27
2023-04-15T15:34:31.422Z,18.28
2023-04-15T15:36:58.090Z,18.27
2023-04-15T15:39:24.810Z,18.15
2023-04-15T15:41:51.567Z,18.07
2023-04-15T15:44:18.232Z,17.97
2023-04-15T15:46:45.081Z,17.86
2023-04-15T15:49:12.701Z,17.77
2023-04-15T15:51:39.333Z,17.67
2023-04-15T15:54:06.065Z,17.55
2023-04-15T15:56:33.269Z,17.48
2023-04-15T15:58:59.966Z,17.46
2023-04-15T16:01:26.720Z,17.47
2023-04-15T16:03:54.021Z,17.50
2023-04-15T16:06:23.864Z,17.51
2023-04-15T16:08:50.538Z,17.48
2023-04-15T16:11:17.341Z,17.44
2023-04-15T16:13:43.989Z,17.37
2023-04-15T16:16:10.771Z,17.27
2023-04-15T16:18:37.427Z,17.19
2023-04-15T16:21:04.187Z,17.16
2023-04-15T16:23:31.067Z,17.14
2023-04-15T16:25:58.094Z,17.13
2023-04-15T16:28:27.099Z,17.12
2023-04-15T16:30:55.128Z,17.13
2023-04-15T16:33:21.857Z,17.14
2023-04-15T16:35:48.559Z,17.11
2023-04-15T16:38:15.701Z,17.06
2023-04-15T16:40:42.653Z,17.02
2023-04-15T16:43:11.391Z,16.98
2023-04-15T16:45:38.878Z,16.90
2023-04-15T16:48:05.885Z,16.79
2023-04-15T16:50:32.888Z,16.68
2023-04-15T16:52:59.516Z,16.60
2023-04-15T16:55:26.872Z,16.50
2023-04-15T16:58:00.537Z,16.47
2023-04-15T17:00:35.976Z,16.43
2023-04-15T17:03:02.983Z,16.37
2023-04-15T17:05:31.224Z,16.34
2023-04-15T17:07:58.443Z,16.32
2023-04-15T17:10:25.218Z,16.33
2023-04-15T17:12:52.844Z,16.34
2023-04-15T17:15:20.398Z,16.32
2023-04-15T17:17:47.143Z,16.27
2023-04-15T17:20:13.865Z,16.24
2023-04-15T17:22:40.745Z,16.19
2023-04-15T17:25:07.859Z,16.14
2023-04-15T17:27:34.460Z,16.08
2023-04-15T17:30:01.472Z,15.99
2023-04-15T17:32:34.575Z,15.90
2023-04-15T17:35:05.594Z,15.77
2023-04-15T17:37:36.169Z,15.65
2023-04-15T17:40:03.468Z,15.57
2023-04-15T17:42:30.424Z,15.51
2023-04-15T17:44:57.120Z,15.45
2023-04-15T17:47:23.833Z,15.43
2023-04-15T17:49:50.522Z,15.39
2023-04-15T17:52:17.266Z,15.35
2023-04-15T17:54:45.638Z,15.29
2023-04-15T17:57:12.335Z,15.26
2023-04-15T17:59:43.941Z,15.22
2023-04-15T18:02:11.817Z,15.14
2023-04-15T18:04:39.637Z,15.10
2023-04-15T18:07:07.221Z,15.03
2023-04-15T18:09:34.079Z,14.98
2023-04-15T18:12:02.204Z,14.91
2023-04-15T18:14:34.616Z,14.88
2023-04-15T18:17:02.747Z,14.84
2023-04-15T18:19:30.881Z,14.78
2023-04-15T18:22:00.406Z,14.75
2023-04-15T18:26:54.575Z,14.68
2023-04-15T18:29:21.255Z,14.66
2023-04-15T18:31:48.041Z,14.66
2023-04-15T18:34:14.720Z,14.65
2023-04-15T18:36:41.598Z,14.65
2023-04-15T18:39:08.534Z,14.60
2023-04-15T18:41:35.311Z,14.55
2023-04-15T18:44:01.950Z,14.53
2023-04-15T18:46:29.067Z,14.48
2023-04-15T18:48:55.885Z,14.42
2023-04-15T18:51:22.535Z,14.36
2023-04-15T18:53:49.184Z,14.33
2023-04-15T18:56:16.155Z,14.29
2023-04-15T18:59:09.825Z,14.24
2023-04-15T19:01:32.179Z,14.20
2023-04-15T19:03:59.444Z,14.14
2023-04-15T19:06:27.256Z,14.11
2023-04-15T19:08:55.037Z,14.07
2023-04-15T19:11:21.880Z,14.05
2023-04-15T19:13:48.701Z,14.05
2023-04-15T19:16:15.370Z,14.04
2023-04-15T19:18:42.133Z,14.03
2023-04-15T19:21:08.837Z,13.97
2023-04-15T19:23:35.707Z,13.93
2023-04-15T19:26:02.650Z,13.89
2023-04-15T19:28:30.147Z,13.84
2023-04-15T19:30:58.032Z,13.78
2023-04-15T19:33:27.412Z,13.74
2023-04-15T19:35:54.149Z,13.71
2023-04-15T19:38:20.819Z,13.66
2023-04-15T19:40:47.531Z,13.63
2023-04-15T19:43:14.148Z,13.60
2023-04-15T19:45:40.828Z,13.57
2023-04-15T19:48:07.636Z,13.55
2023-04-15T19:50:34.334Z,13.51
2023-04-15T19:53:01.194Z,13.49
2023-04-15T19:55:27.929Z,13.48
2023-04-15T19:57:54.655Z,13.48
2023-04-15T20:00:21.584Z,13.49
2023-04-15T20:02:48.410Z,13.50
2023-04-15T20:05:15.478Z,13.51
2023-04-15T20:07:43.166Z,13.51
2023-04-15T20:10:13.087Z,13.50
2023-04-15T20:12:50.192Z,13.49
2023-04-15T20:15:19.708Z,13.49
2023-04-15T20:17:46.574Z,13.48
2023-04-15T20:20:13.486Z,13.47
2023-04-15T20:22:40.262Z,13.46
2023-04-15T20:25:07.614Z,13.45
2023-04-15T20:27:34.316Z,13.45
2023-04-15T20:30:01.308Z,13.45
2023-04-15T20:32:28.481Z,13.44
2023-04-15T20:34:55.349Z,13.42
2023-04-15T20:37:22.520Z,13.41
2023-04-15T20:39:49.308Z,13.40
2023-04-15T20:42:16.222Z,13.41
2023-04-15T20:44:42.968Z,13.42
2023-04-15T20:47:10.013Z,13.43
2023-04-15T20:49:38.368Z,13.41
2023-04-15T20:52:07.153Z,13.38
2023-04-15T20:54:34.246Z,13.35
2023-04-15T20:57:01.916Z,13.32
2023-04-15T20:59:28.733Z,13.32
2023-04-15T21:01:57.248Z,13.30
2023-04-15T21:04:24.631Z,13.29
2023-04-15T21:06:52.351Z,13.29
2023-04-15T21:09:19.160Z,13.27
2023-04-15T21:12:00.398Z,13.27
2023-04-15T21:14:28.999Z,13.25
2023-04-15T21:16:58.139Z,13.22
2023-04-15T21:19:24.893Z,13.19
2023-04-15T21:21:51.584Z,13.15
2023-04-15T21:24:18.184Z,13.12
2023-04-15T21:26:44.820Z,13.09
2023-04-15T21:29:12.154Z,13.07
2023-04-15T21:31:39.930Z,13.04
2023-04-15T21:34:06.562Z,13.02
2023-04-15T21:36:33.961Z,12.99
2023-04-15T21:39:01.099Z,12.97
2023-04-15T21:41:46.982Z,12.95
2023-04-15T21:44:14.971Z,12.92
2023-04-15T21:46:46.120Z,12.91
2023-04-15T21:49:13.769Z,12.90
2023-04-15T21:51:40.352Z,12.88
2023-04-15T21:54:06.987Z,12.87
2023-04-15T21:56:33.655Z,12.85
2023-04-15T21:59:00.392Z,12.84
2023-04-15T22:01:27.187Z,12.82
2023-04-15T22:03:54.188Z,12.81
2023-04-15T22:06:21.647Z,12.81
2023-04-15T22:08:56.657Z,12.80
2023-04-15T22:11:30.480Z,12.79
2023-04-15T22:13:57.979Z,12.79
2023-04-15T22:16:28.441Z,12.79
2023-04-15T22:18:55.920Z,12.77
2023-04-15T22:21:23.395Z,12.77
2023-04-15T22:23:51.132Z,12.76
2023-04-15T22:26:17.835Z,12.77
2023-04-15T22:28:44.508Z,12.75
2023-04-15T22:31:11.471Z,12.75
2023-04-15T22:33:39.054Z,12.74
2023-04-15T22:36:06.289Z,12.73
2023-04-15T22:38:33.351Z,12.72
2023-04-15T22:41:00.072Z,12.73
2023-04-15T22:43:27.784Z,12.73
2023-04-15T22:45:55.143Z,12.72
2023-04-15T22:48:22.924Z,12.71
2023-04-15T22:50:49.987Z,12.72
2023-04-15T22:53:20.171Z,12.71
2023-04-15T22:55:48.316Z,12.71
2023-04-15T22:58:15.932Z,12.71
2023-04-15T23:00:42.728Z,12.70
2023-04-15T23:03:09.960Z,12.69
2023-04-15T23:05:37.060Z,12.67
2023-04-15T23:08:03.706Z,12.67
2023-04-15T23:10:30.421Z,12.67
2023-04-15T23:12:57.104Z,12.67
2023-04-15T23:15:23.942Z,12.67
2023-04-15T23:17:50.829Z,12.67
2023-04-15T23:20:17.651Z,12.66
2023-04-15T23:22:44.410Z,12.65
2023-04-15T23:25:11.014Z,12.63
2023-04-15T23:27:37.714Z,12.61
2023-04-15T23:30:04.819Z,12.59
2023-04-15T23:32:31.490Z,12.57
2023-04-15T23:34:58.261Z,12.55
2023-04-15T23:37:24.870Z,12.53
2023-04-15T23:39:51.652Z,12.45
2023-04-15T23:42:18.309Z,12.38
2023-04-15T23:44:44.978Z,12.34
2023-04-15T23:47:11.594Z,12.30
2023-04-15T23:49:40.980Z,12.29
2023-04-15T23:52:08.044Z,12.27
2023-04-15T23:54:35.347Z,12.25
2023-04-15T23:57:03.615Z,12.25
2023-04-15T23:59:30.269Z,12.25
